createdAt,value
2019-04-07T00:00:12.375Z,61.40
2019-04-07T00:02:41.083Z,58.50
2019-04-07T00:05:13.737Z,61.40
2019-04-07T00:07:40.206Z,56.10
2019-04-07T00:10:12.060Z,63.37
2019-04-07T00:12:41.302Z,62.97
2019-04-07T00:15:10.419Z,59.27
2019-04-07T00:17:39.021Z,63.40
2019-04-07T00:20:07.657Z,62.70
2019-04-07T00:22:36.120Z,55.70
2019-04-07T00:25:05.299Z,66.23
2019-04-07T00:27:33.978Z,66.57
2019-04-07T00:30:02.588Z,61.80
2019-04-07T00:32:31.060Z,67.17
2019-04-07T00:34:59.965Z,63.40
2019-04-07T00:37:29.473Z,67.17
2019-04-07T00:39:58.907Z,65.77
2019-04-07T00:42:27.717Z,65.80
2019-04-07T00:44:56.201Z,66.93
2019-04-07T00:47:24.928Z,64.33
2019-04-07T00:49:53.421Z,64.90
2019-04-07T00:52:25.365Z,65.00
2019-04-07T00:54:54.541Z,65.20
2019-04-07T00:57:23.261Z,68.00
2019-04-07T00:59:51.758Z,66.93
2019-04-07T01:02:21.242Z,67.80
2019-04-07T01:04:49.944Z,66.57
2019-04-07T01:07:19.130Z,67.07
2019-04-07T01:09:48.020Z,65.23
2019-04-07T01:12:16.576Z,64.67
2019-04-07T01:14:45.134Z,67.13
2019-04-07T01:17:13.794Z,66.03
2019-04-07T01:19:43.355Z,61.40
2019-04-07T01:22:11.887Z,64.33
2019-04-07T01:24:40.636Z,65.10
2019-04-07T01:27:09.324Z,67.33
2019-04-07T01:29:37.853Z,67.20
2019-04-07T01:32:06.314Z,63.53
2019-04-07T01:34:35.038Z,66.00
2019-04-07T01:37:23.083Z,62.17
2019-04-07T01:39:51.644Z,63.40
2019-04-07T01:42:33.493Z,67.40
2019-04-07T01:45:20.576Z,62.93
2019-04-07T01:47:54.088Z,67.40
2019-04-07T01:50:24.495Z,68.17
2019-04-07T01:52:57.142Z,62.97
2019-04-07T01:55:27.735Z,67.87
2019-04-07T01:58:10.803Z,67.37
2019-04-07T02:00:57.764Z,68.00
2019-04-07T02:03:44.160Z,72.63
2019-04-07T02:06:14.279Z,69.17
2019-04-07T02:08:44.412Z,70.90
2019-04-07T02:11:23.440Z,70.67
2019-04-07T02:13:59.421Z,66.07
2019-04-07T02:16:29.978Z,66.27
2019-04-07T02:19:00.865Z,65.33
2019-04-07T02:21:31.092Z,63.60
2019-04-07T02:24:20.231Z,64.90
2019-04-07T02:26:50.548Z,67.60
2019-04-07T02:29:27.132Z,59.73
2019-04-07T02:32:00.306Z,57.70
2019-04-07T02:34:30.464Z,61.47
2019-04-07T02:37:17.498Z,64.70
2019-04-07T02:40:05.000Z,57.67
2019-04-07T02:42:36.437Z,67.03
2019-04-07T02:45:09.098Z,68.00
2019-04-07T02:47:46.714Z,64.67
2019-04-07T02:50:26.262Z,65.97
2019-04-07T02:53:09.496Z,65.03
2019-04-07T02:55:58.027Z,64.70
2019-04-07T02:58:29.218Z,65.93
2019-04-07T03:01:03.826Z,66.70
2019-04-07T03:03:40.634Z,66.43
2019-04-07T03:06:39.365Z,63.57
2019-04-07T03:09:01.981Z,64.23
2019-04-07T03:11:32.206Z,62.37
2019-04-07T03:14:05.674Z,61.17
2019-04-07T03:16:43.754Z,63.77
2019-04-07T03:19:15.141Z,64.93
2019-04-07T03:22:00.930Z,65.17
2019-04-07T03:24:46.360Z,67.17
2019-04-07T03:27:19.479Z,64.17
2019-04-07T03:30:01.547Z,60.57
2019-04-07T03:32:37.423Z,59.87
2019-04-07T03:35:26.542Z,63.68
2019-04-07T03:37:57.135Z,65.33
2019-04-07T03:40:44.190Z,64.07
2019-04-07T03:43:17.726Z,63.53
2019-04-07T03:45:48.228Z,60.50
2019-04-07T03:48:18.379Z,62.57
2019-04-07T03:50:48.692Z,66.90
2019-04-07T03:53:35.680Z,62.23
2019-04-07T03:56:23.147Z,63.20
2019-04-07T03:58:56.276Z,65.67
2019-04-07T04:02:01.081Z,65.87
2019-04-07T04:04:43.663Z,64.20
2019-04-07T04:07:28.426Z,64.60
2019-04-07T04:09:53.751Z,65.03
2019-04-07T04:12:24.447Z,62.37
2019-04-07T04:14:57.212Z,64.40
2019-04-07T04:17:25.734Z,65.63
2019-04-07T04:19:55.124Z,60.27
2019-04-07T04:22:23.716Z,59.43
2019-04-07T04:24:53.440Z,58.30
2019-04-07T04:27:22.275Z,59.77
2019-04-07T04:29:52.045Z,59.60
2019-04-07T04:32:21.985Z,64.00
2019-04-07T04:34:51.467Z,64.13
2019-04-07T04:37:34.369Z,61.97
2019-04-07T04:39:51.156Z,61.70
2019-04-07T04:42:20.405Z,63.23
2019-04-07T04:44:49.067Z,59.00
2019-04-07T04:47:17.533Z,58.90
2019-04-07T04:49:46.004Z,63.70
2019-04-07T04:52:14.496Z,60.00
2019-04-07T04:54:42.965Z,63.80
2019-04-07T04:57:11.477Z,60.60
2019-04-07T04:59:40.317Z,61.17
2019-04-07T05:02:17.139Z,58.13
2019-04-07T05:07:28.894Z,57.00
2019-04-07T05:09:57.675Z,57.20
2019-04-07T05:12:26.144Z,58.73
2019-04-07T05:14:54.782Z,57.23
2019-04-07T05:17:23.284Z,60.77
2019-04-07T05:19:52.178Z,59.20
2019-04-07T05:22:21.292Z,57.53
2019-04-07T05:24:50.498Z,57.93
2019-04-07T05:27:19.127Z,58.40
2019-04-07T05:29:47.858Z,58.53
2019-04-07T05:32:16.874Z,57.23
2019-04-07T05:34:45.596Z,58.60
2019-04-07T05:37:14.172Z,57.20
2019-04-07T05:39:42.640Z,56.63
2019-04-07T05:42:11.139Z,57.97
2019-04-07T05:44:59.617Z,59.40
2019-04-07T05:47:28.401Z,54.80
2019-04-07T05:49:58.737Z,56.33
2019-04-07T05:52:27.265Z,56.73
2019-04-07T05:55:15.253Z,57.00
2019-04-07T05:57:44.211Z,55.37
2019-04-07T06:00:16.340Z,55.67
2019-04-07T06:02:44.122Z,54.07
2019-04-07T06:05:12.832Z,61.40
2019-04-07T06:07:41.564Z,56.17
2019-04-07T06:10:10.688Z,55.13
2019-04-07T06:12:41.999Z,55.33
2019-04-07T06:15:10.976Z,57.67
2019-04-07T06:17:40.030Z,56.40
2019-04-07T06:20:13.531Z,53.37
2019-04-07T06:22:39.279Z,56.57
2019-04-07T06:25:09.590Z,54.57
2019-04-07T06:27:38.443Z,54.83
2019-04-07T06:30:08.561Z,62.13
2019-04-07T06:32:38.495Z,52.97
2019-04-07T06:35:08.459Z,58.67
2019-04-07T06:37:37.399Z,58.63
2019-04-07T06:40:06.203Z,57.80
2019-04-07T06:42:37.564Z,57.57
2019-04-07T06:45:11.903Z,55.10
2019-04-07T06:47:44.326Z,58.87
2019-04-07T06:50:32.322Z,63.90
2019-04-07T06:53:21.158Z,61.77
2019-04-07T06:55:58.182Z,60.60
2019-04-07T06:58:27.953Z,57.27
2019-04-07T07:01:16.733Z,60.77
2019-04-07T07:03:56.212Z,60.17
2019-04-07T07:06:56.863Z,59.17
2019-04-07T07:09:29.413Z,57.57
2019-04-07T07:12:24.450Z,60.17
2019-04-07T07:14:56.082Z,58.27
2019-04-07T07:17:32.292Z,58.10
2019-04-07T07:20:20.078Z,59.27
2019-04-07T07:22:55.004Z,56.23
2019-04-07T07:25:29.814Z,54.93
2019-04-07T07:28:01.564Z,54.77
2019-04-07T07:30:33.297Z,57.10
2019-04-07T07:33:07.356Z,52.80
2019-04-07T07:35:37.691Z,58.60
2019-04-07T07:38:10.335Z,53.00
2019-04-07T07:40:42.626Z,53.97
2019-04-07T07:43:16.154Z,56.33
2019-04-07T07:45:48.316Z,53.00
2019-04-07T07:48:20.822Z,61.73
2019-04-07T07:50:53.771Z,51.63
2019-04-07T07:53:28.149Z,50.47
2019-04-07T07:55:57.651Z,51.90
2019-04-07T07:58:31.703Z,48.27
2019-04-07T08:01:01.926Z,50.40
2019-04-07T08:03:33.906Z,51.17
2019-04-07T08:06:08.202Z,48.93
2019-04-07T08:08:37.972Z,49.27
2019-04-07T08:11:09.000Z,50.00
2019-04-07T08:13:43.932Z,33.57
2019-04-07T08:16:12.379Z,34.97
2019-04-07T08:18:46.123Z,45.77
2019-04-07T08:21:18.859Z,46.77
2019-04-07T08:23:49.555Z,30.63
2019-04-07T08:26:24.348Z,29.53
2019-04-07T08:28:55.110Z,29.97
2019-04-07T08:32:18.721Z,40.10
2019-04-07T08:34:50.584Z,39.97
2019-04-07T08:37:21.889Z,34.97
2019-04-07T08:39:52.616Z,40.63
2019-04-07T08:42:25.236Z,37.87
2019-04-07T08:44:59.228Z,29.20
2019-04-07T08:47:30.160Z,37.43
2019-04-07T08:50:01.930Z,38.97
2019-04-07T08:52:34.334Z,39.07
2019-04-07T08:55:07.296Z,38.53
2019-04-07T08:57:40.094Z,37.13
2019-04-07T09:00:15.608Z,35.03
2019-04-07T09:02:44.710Z,36.73
2019-04-07T09:05:16.210Z,33.67
2019-04-07T09:07:49.255Z,32.87
2019-04-07T09:10:24.942Z,31.67
2019-04-07T09:12:58.715Z,32.43
2019-04-07T09:15:29.466Z,30.40
2019-04-07T09:18:05.457Z,30.55
2019-04-07T09:20:44.315Z,33.67
2019-04-07T09:23:19.177Z,30.67
2019-04-07T09:26:11.975Z,31.20
2019-04-07T09:28:44.308Z,27.07
2019-04-07T09:31:20.337Z,30.43
2019-04-07T09:33:58.777Z,34.67
2019-04-07T09:36:32.583Z,35.47
2019-04-07T09:39:22.514Z,26.13
2019-04-07T09:41:58.372Z,31.30
2019-04-07T09:44:36.552Z,34.43
2019-04-07T09:47:06.327Z,25.07
2019-04-07T09:49:46.752Z,31.23
2019-04-07T09:52:17.905Z,30.37
2019-04-07T09:54:55.471Z,29.87
2019-04-07T09:57:38.990Z,30.03
2019-04-07T10:00:14.298Z,26.13
2019-04-07T10:02:50.546Z,28.67
2019-04-07T10:05:35.944Z,22.40
2019-04-07T10:08:25.879Z,23.67
2019-04-07T10:11:14.751Z,30.27
2019-04-07T10:13:49.747Z,28.43
2019-04-07T10:16:31.833Z,19.50
2019-04-07T10:19:09.841Z,29.10
2019-04-07T10:22:02.387Z,32.90
2019-04-07T10:24:37.060Z,20.17
2019-04-07T10:27:19.108Z,22.03
2019-04-07T10:30:07.896Z,23.30
2019-04-07T10:32:48.819Z,14.57
2019-04-07T10:35:37.327Z,19.33
2019-04-07T10:38:12.916Z,21.20
2019-04-07T10:40:47.864Z,19.13
2019-04-07T10:43:30.314Z,18.07
2019-04-07T10:46:19.017Z,15.83
2019-04-07T10:48:56.890Z,19.17
2019-04-07T10:51:37.946Z,23.10
2019-04-07T10:54:28.810Z,20.73
2019-04-07T10:57:01.023Z,20.83
2019-04-07T10:59:54.017Z,20.73
2019-04-07T11:02:36.130Z,21.20
2019-04-07T11:05:13.140Z,21.77
2019-04-07T11:07:45.754Z,23.57
2019-04-07T11:10:34.442Z,20.43
2019-04-07T11:13:17.104Z,18.83
2019-04-07T11:15:50.895Z,20.20
2019-04-07T11:18:38.242Z,22.43
2019-04-07T11:21:13.634Z,17.47
2019-04-07T11:24:03.845Z,21.60
2019-04-07T11:26:37.599Z,20.80
2019-04-07T11:29:13.325Z,25.20
2019-04-07T11:31:51.578Z,21.80
2019-04-07T11:34:33.191Z,16.50
2019-04-07T11:37:09.913Z,17.00
2019-04-07T11:39:42.523Z,15.57
2019-04-07T11:42:21.316Z,20.30
2019-04-07T11:44:54.191Z,14.67
2019-04-07T11:47:27.060Z,12.90
2019-04-07T11:50:12.435Z,15.07
2019-04-07T11:53:00.596Z,17.63
2019-04-07T11:55:46.429Z,16.93
2019-04-07T11:58:25.834Z,14.83
2019-04-07T12:01:27.103Z,13.00
2019-04-07T12:04:08.156Z,12.10
2019-04-07T12:06:49.226Z,15.30
2019-04-07T12:09:33.685Z,14.37
2019-04-07T12:12:27.652Z,17.03
2019-04-07T12:15:07.395Z,13.77
2019-04-07T12:17:53.478Z,16.27
2019-04-07T12:20:34.052Z,15.00
2019-04-07T12:23:21.921Z,15.07
2019-04-07T12:25:51.506Z,18.47
2019-04-07T12:28:36.525Z,18.77
2019-04-07T12:31:15.331Z,19.67
2019-04-07T12:34:00.780Z,18.93
2019-04-07T12:36:35.730Z,16.90
2019-04-07T12:39:25.618Z,18.13
2019-04-07T12:42:05.181Z,15.07
2019-04-07T12:44:53.826Z,16.13
2019-04-07T12:47:38.779Z,16.00
2019-04-07T12:50:31.658Z,13.80
2019-04-07T12:53:20.772Z,14.30
2019-04-07T12:56:00.463Z,16.37
2019-04-07T12:58:44.055Z,13.20
2019-04-07T13:01:31.637Z,13.63
2019-04-07T13:04:07.364Z,12.43
2019-04-07T13:06:46.881Z,11.70
2019-04-07T13:09:27.779Z,13.50
2019-04-07T13:12:04.067Z,11.93
2019-04-07T13:14:44.008Z,13.03
2019-04-07T13:17:23.156Z,12.80
2019-04-07T13:19:59.189Z,12.10
2019-04-07T13:22:45.609Z,13.40
2019-04-07T13:25:25.075Z,14.10
2019-04-07T13:27:58.823Z,12.70
2019-04-07T13:30:40.947Z,11.57
2019-04-07T13:33:23.764Z,13.90
2019-04-07T13:36:01.811Z,12.03
2019-04-07T13:38:50.164Z,13.47
2019-04-07T13:41:38.014Z,11.33
2019-04-07T13:44:10.750Z,13.60
2019-04-07T13:46:44.440Z,12.40
2019-04-07T13:49:34.134Z,13.57
2019-04-07T13:52:20.029Z,13.00
2019-04-07T13:54:54.760Z,11.63
2019-04-07T13:57:33.838Z,12.50
2019-04-07T14:00:13.462Z,12.50
2019-04-07T14:03:00.294Z,11.40
2019-04-07T14:05:43.053Z,12.23
2019-04-07T14:08:17.439Z,12.67
2019-04-07T14:11:23.852Z,11.87
2019-04-07T14:14:09.662Z,11.20
2019-04-07T14:16:47.602Z,11.80
2019-04-07T14:19:29.877Z,12.00
2019-04-07T14:22:20.851Z,12.57
2019-04-07T14:24:56.917Z,11.93
2019-04-07T14:27:39.614Z,12.00
2019-04-07T14:30:15.813Z,12.13
2019-04-07T14:32:52.033Z,10.33
2019-04-07T14:35:41.034Z,11.33
2019-04-07T14:38:13.602Z,10.13
2019-04-07T14:40:45.681Z,11.73
2019-04-07T14:43:21.715Z,11.30
2019-04-07T14:46:10.747Z,11.73
2019-04-07T14:48:56.490Z,10.93
2019-04-07T14:51:42.658Z,11.47
2019-04-07T14:54:15.344Z,11.30
2019-04-07T14:57:07.341Z,11.83
2019-04-07T14:59:58.959Z,17.10
2019-04-07T15:02:30.161Z,12.17
2019-04-07T15:05:01.878Z,11.47
2019-04-07T15:07:39.783Z,11.53
2019-04-07T15:10:16.979Z,12.30
2019-04-07T15:12:55.689Z,11.57
2019-04-07T15:15:27.891Z,18.17
2019-04-07T15:17:59.863Z,11.63
2019-04-07T15:20:32.262Z,11.73
2019-04-07T15:23:04.446Z,11.90
2019-04-07T15:25:40.657Z,12.20
2019-04-07T15:28:11.074Z,12.63
2019-04-07T15:30:46.029Z,11.40
2019-04-07T15:33:17.768Z,11.03
2019-04-07T15:35:58.918Z,12.20
2019-04-07T15:38:30.245Z,11.50
2019-04-07T15:41:15.263Z,10.37
2019-04-07T15:43:44.264Z,10.30
2019-04-07T15:46:19.249Z,10.57
2019-04-07T15:48:55.594Z,11.83
2019-04-07T15:51:28.261Z,11.27
2019-04-07T15:53:59.413Z,10.87
2019-04-07T15:56:31.542Z,10.67
2019-04-07T15:59:04.005Z,11.40
2019-04-07T16:01:38.646Z,11.07
2019-04-07T16:04:11.798Z,11.93
2019-04-07T16:06:47.084Z,12.70
2019-04-07T16:09:31.569Z,12.67
2019-04-07T16:12:13.422Z,11.80
2019-04-07T16:14:46.934Z,13.63
2019-04-07T16:17:18.998Z,13.10
2019-04-07T16:19:54.443Z,10.77
2019-04-07T16:22:28.828Z,11.27
2019-04-07T16:25:00.761Z,15.43
2019-04-07T16:27:36.544Z,13.77
2019-04-07T16:30:16.427Z,15.10
2019-04-07T16:33:04.032Z,13.43
2019-04-07T16:35:36.507Z,13.37
2019-04-07T16:38:08.389Z,12.23
2019-04-07T16:40:42.160Z,12.87
2019-04-07T16:43:16.271Z,13.27
2019-04-07T16:45:47.167Z,13.67
2019-04-07T16:48:39.834Z,14.33
2019-04-07T16:51:08.030Z,11.67
2019-04-07T16:53:41.779Z,13.33
2019-04-07T16:56:13.366Z,15.30
2019-04-07T16:58:43.687Z,14.47
2019-04-07T17:01:34.655Z,10.27
2019-04-07T17:04:06.367Z,13.83
2019-04-07T17:06:44.841Z,11.10
2019-04-07T17:09:25.099Z,13.73
2019-04-07T17:11:54.947Z,12.17
2019-04-07T17:14:26.893Z,15.10
2019-04-07T17:16:59.074Z,15.13
2019-04-07T17:19:30.961Z,14.43
2019-04-07T17:22:01.849Z,13.50
2019-04-07T17:24:35.537Z,13.07
2019-04-07T17:27:09.748Z,14.13
2019-04-07T17:29:41.678Z,14.70
2019-04-07T17:32:13.332Z,15.27
2019-04-07T17:34:44.940Z,14.17
2019-04-07T17:37:17.527Z,14.00
2019-04-07T17:39:52.712Z,12.50
2019-04-07T17:42:27.245Z,14.00
2019-04-07T17:44:58.079Z,13.23
2019-04-07T17:47:45.725Z,14.23
2019-04-07T17:50:36.838Z,14.73
2019-04-07T17:53:41.340Z,13.40
2019-04-07T17:56:24.170Z,14.17
2019-04-07T17:59:04.456Z,14.63
2019-04-07T18:01:37.763Z,15.37
2019-04-07T18:04:30.566Z,13.47
2019-04-07T18:07:23.353Z,13.77
2019-04-07T18:10:12.249Z,14.27
2019-04-07T18:13:02.977Z,14.97
2019-04-07T18:15:36.633Z,14.23
2019-04-07T18:18:10.477Z,14.33
2019-04-07T18:20:46.368Z,14.57
2019-04-07T18:23:26.246Z,14.47
2019-04-07T18:26:06.323Z,15.07
2019-04-07T18:28:55.202Z,16.03
2019-04-07T18:31:38.735Z,13.57
2019-04-07T18:34:15.324Z,16.73
2019-04-07T18:36:52.124Z,14.90
2019-04-07T18:39:27.591Z,13.87
2019-04-07T18:42:17.784Z,13.63
2019-04-07T18:47:45.158Z,15.07
2019-04-07T18:50:30.690Z,19.27
2019-04-07T18:53:12.234Z,15.17
2019-04-07T18:55:54.334Z,15.43
2019-04-07T18:58:37.452Z,16.20
2019-04-07T19:01:16.916Z,15.07
2019-04-07T19:04:02.390Z,15.03
2019-04-07T19:06:36.919Z,16.23
2019-04-07T19:09:14.205Z,16.30
2019-04-07T19:12:07.897Z,20.90
2019-04-07T19:15:00.814Z,15.60
2019-04-07T19:17:26.063Z,16.83
2019-04-07T19:20:15.920Z,18.63
2019-04-07T19:22:52.815Z,16.10
2019-04-07T19:25:42.662Z,16.00
2019-04-07T19:28:28.425Z,15.77
2019-04-07T19:31:05.189Z,17.07
2019-04-07T19:33:55.959Z,16.83
2019-04-07T19:36:27.367Z,17.23
2019-04-07T19:39:02.797Z,17.17
2019-04-07T19:41:53.367Z,15.97
2019-04-07T19:44:46.124Z,16.67
2019-04-07T19:47:34.568Z,18.70
2019-04-07T19:50:22.693Z,16.83
2019-04-07T19:53:03.862Z,16.47
2019-04-07T19:55:41.263Z,16.77
2019-04-07T19:58:35.294Z,18.60
2019-04-07T20:01:03.390Z,18.13
2019-04-07T20:03:52.408Z,17.27
2019-04-07T20:06:24.865Z,15.43
2019-04-07T20:09:12.670Z,21.43
2019-04-07T20:11:48.183Z,15.37
2019-04-07T20:14:28.843Z,15.80
2019-04-07T20:17:04.207Z,17.27
2019-04-07T20:19:40.254Z,17.60
2019-04-07T20:22:11.806Z,17.40
2019-04-07T20:24:47.251Z,18.30
2019-04-07T20:27:27.359Z,17.47
2019-04-07T20:30:15.443Z,17.30
2019-04-07T20:32:48.209Z,18.60
2019-04-07T20:35:20.862Z,18.27
2019-04-07T20:38:08.016Z,14.17
2019-04-07T20:40:46.716Z,14.47
2019-04-07T20:43:40.555Z,18.27
2019-04-07T20:46:28.217Z,20.03
2019-04-07T20:49:08.945Z,19.30
2019-04-07T20:51:48.070Z,20.27
2019-04-07T20:54:33.079Z,20.60
2019-04-07T20:57:07.836Z,26.93
2019-04-07T20:59:55.254Z,23.77
2019-04-07T21:02:45.221Z,22.77
2019-04-07T21:05:18.629Z,22.17
2019-04-07T21:08:10.362Z,22.50
2019-04-07T21:10:53.906Z,21.50
2019-04-07T21:13:28.952Z,22.37
2019-04-07T21:16:07.005Z,24.67
2019-04-07T21:18:55.122Z,23.50
2019-04-07T21:21:34.550Z,21.43
2019-04-07T21:24:07.814Z,22.53
2019-04-07T21:26:45.601Z,23.13
2019-04-07T21:29:22.509Z,21.60
2019-04-07T21:32:10.843Z,20.17
2019-04-07T21:34:44.956Z,23.10
2019-04-07T21:37:16.425Z,21.43
2019-04-07T21:39:47.125Z,21.37
2019-04-07T21:42:25.738Z,21.33
2019-04-07T21:45:06.340Z,21.53
2019-04-07T21:47:46.118Z,17.07
2019-04-07T21:50:26.886Z,21.70
2019-04-07T21:53:14.253Z,21.13
2019-04-07T21:56:01.743Z,22.83
2019-04-07T21:58:32.195Z,21.90
2019-04-07T22:01:18.989Z,21.77
2019-04-07T22:03:49.684Z,22.67
2019-04-07T22:06:23.598Z,23.03
2019-04-07T22:09:00.283Z,22.10
2019-04-07T22:11:30.438Z,19.00
2019-04-07T22:13:59.450Z,19.13
2019-04-07T22:16:31.425Z,21.77
2019-04-07T22:18:58.796Z,23.33
2019-04-07T22:21:27.756Z,23.70
2019-04-07T22:23:56.628Z,24.93
2019-04-07T22:26:25.089Z,23.13
2019-04-07T22:28:53.717Z,23.27
2019-04-07T22:31:26.923Z,24.53
2019-04-07T22:33:58.033Z,23.60
2019-04-07T22:36:25.663Z,23.10
2019-04-07T22:38:56.476Z,22.73
2019-04-07T22:41:25.708Z,25.23
2019-04-07T22:43:55.351Z,23.17
2019-04-07T22:46:27.102Z,23.80
2019-04-07T22:48:56.970Z,23.30
2019-04-07T22:51:25.041Z,24.13
2019-04-07T22:53:56.181Z,24.13
2019-04-07T22:56:24.378Z,24.27
2019-04-07T22:58:53.017Z,22.97
2019-04-07T23:01:21.576Z,24.40
2019-04-07T23:03:50.089Z,25.53
2019-04-07T23:06:18.991Z,23.87
2019-04-07T23:08:47.705Z,23.03
2019-04-07T23:11:16.197Z,24.40
2019-04-07T23:13:45.144Z,25.77
2019-04-07T23:16:16.099Z,23.43
2019-04-07T23:18:44.509Z,23.40
2019-04-07T23:21:14.903Z,24.90
2019-04-07T23:23:43.507Z,25.07
2019-04-07T23:26:11.984Z,24.43
2019-04-07T23:28:40.865Z,24.80
2019-04-07T23:31:09.652Z,24.63
2019-04-07T23:33:38.316Z,22.57
2019-04-07T23:36:07.106Z,23.10
2019-04-07T23:38:35.588Z,23.70
2019-04-07T23:41:04.135Z,25.80
2019-04-07T23:43:33.442Z,26.03
2019-04-07T23:46:03.047Z,25.70
2019-04-07T23:48:32.606Z,23.90
2019-04-07T23:51:01.709Z,25.73
2019-04-07T23:53:53.770Z,25.77
2019-04-07T23:56:22.660Z,25.03
2019-04-07T23:58:52.012Z,24.17
